sensor_id;sensor_type;location;lat;lon;timestamp;P1;durP1;ratioP1;P2;durP2;ratioP2
15712;SDS011;7957;51.608;6.916;2023-04-06T00:00:34;12.57;;;11.27;;
15712;SDS011;7957;51.608;6.916;2023-04-06T00:03:01;12.80;;;11.47;;
15712;SDS011;7957;51.608;6.916;2023-04-06T00:05:29;13.17;;;11.07;;
15712;SDS011;7957;51.608;6.916;2023-04-06T00:07:57;15.07;;;11.47;;
15712;SDS011;7957;51.608;6.916;2023-04-06T00:10:24;13.87;;;11.73;;
15712;SDS011;7957;51.608;6.916;2023-04-06T00:12:51;11.87;;;10.67;;
15712;SDS011;7957;51.608;6.916;2023-04-06T00:15:20;12.10;;;10.80;;
15712;SDS011;7957;51.608;6.916;2023-04-06T00:17:46;12.03;;;10.70;;
15712;SDS011;7957;51.608;6.916;2023-04-06T00:20:13;12.03;;;10.73;;
15712;SDS011;7957;51.608;6.916;2023-04-06T00:22:41;13.60;;;11.83;;
15712;SDS011;7957;51.608;6.916;2023-04-06T00:25:08;12.77;;;11.47;;
15712;SDS011;7957;51.608;6.916;2023-04-06T00:27:36;16.97;;;11.47;;
15712;SDS011;7957;51.608;6.916;2023-04-06T00:30:03;12.57;;;11.17;;
15712;SDS011;7957;51.608;6.916;2023-04-06T00:32:32;13.40;;;11.47;;
15712;SDS011;7957;51.608;6.916;2023-04-06T00:34:59;12.87;;;11.57;;
15712;SDS011;7957;51.608;6.916;2023-04-06T00:37:26;12.97;;;11.63;;
15712;SDS011;7957;51.608;6.916;2023-04-06T00:39:52;13.97;;;11.80;;
15712;SDS011;7957;51.608;6.916;2023-04-06T00:42:19;13.67;;;12.13;;
15712;SDS011;7957;51.608;6.916;2023-04-06T00:44:50;13.57;;;12.17;;
15712;SDS011;7957;51.608;6.916;2023-04-06T00:47:18;13.37;;;11.73;;
15712;SDS011;7957;51.608;6.916;2023-04-06T00:49:46;13.97;;;12.23;;
15712;SDS011;7957;51.608;6.916;2023-04-06T00:52:13;14.17;;;12.60;;
15712;SDS011;7957;51.608;6.916;2023-04-06T00:54:41;12.87;;;11.47;;
15712;SDS011;7957;51.608;6.916;2023-04-06T00:57:09;14.33;;;12.03;;
15712;SDS011;7957;51.608;6.916;2023-04-06T00:59:36;13.77;;;12.37;;
15712;SDS011;7957;51.608;6.916;2023-04-06T01:02:03;13.70;;;12.30;;
15712;SDS011;7957;51.608;6.916;2023-04-06T01:04:31;13.50;;;12.10;;
15712;SDS011;7957;51.608;6.916;2023-04-06T01:06:59;13.23;;;11.87;;
15712;SDS011;7957;51.608;6.916;2023-04-06T01:09:27;14.00;;;12.20;;
15712;SDS011;7957;51.608;6.916;2023-04-06T01:11:55;16.43;;;12.10;;
15712;SDS011;7957;51.608;6.916;2023-04-06T01:14:22;13.87;;;12.30;;
15712;SDS011;7957;51.608;6.916;2023-04-06T01:16:49;14.17;;;12.30;;
15712;SDS011;7957;51.608;6.916;2023-04-06T01:19:16;13.23;;;11.77;;
15712;SDS011;7957;51.608;6.916;2023-04-06T01:21:43;15.93;;;12.83;;
15712;SDS011;7957;51.608;6.916;2023-04-06T01:24:11;13.70;;;12.20;;
15712;SDS011;7957;51.608;6.916;2023-04-06T01:26:38;12.97;;;11.57;;
15712;SDS011;7957;51.608;6.916;2023-04-06T01:29:06;13.10;;;11.80;;
15712;SDS011;7957;51.608;6.916;2023-04-06T01:31:33;13.87;;;12.37;;
15712;SDS011;7957;51.608;6.916;2023-04-06T01:34:00;12.83;;;11.53;;
15712;SDS011;7957;51.608;6.916;2023-04-06T01:36:27;13.27;;;11.87;;
15712;SDS011;7957;51.608;6.916;2023-04-06T01:38:54;12.97;;;11.67;;
15712;SDS011;7957;51.608;6.916;2023-04-06T01:41:23;17.30;;;13.03;;
15712;SDS011;7957;51.608;6.916;2023-04-06T01:43:49;16.23;;;12.60;;
15712;SDS011;7957;51.608;6.916;2023-04-06T01:46:19;14.17;;;12.77;;
15712;SDS011;7957;51.608;6.916;2023-04-06T01:48:46;13.40;;;11.73;;
15712;SDS011;7957;51.608;6.916;2023-04-06T01:51:13;14.30;;;12.13;;
15712;SDS011;7957;51.608;6.916;2023-04-06T01:53:40;13.90;;;12.03;;
15712;SDS011;7957;51.608;6.916;2023-04-06T01:56:06;14.73;;;11.80;;
15712;SDS011;7957;51.608;6.916;2023-04-06T01:58:36;13.67;;;11.53;;
15712;SDS011;7957;51.608;6.916;2023-04-06T02:01:03;13.47;;;12.07;;
15712;SDS011;7957;51.608;6.916;2023-04-06T02:03:30;12.90;;;11.53;;
15712;SDS011;7957;51.608;6.916;2023-04-06T02:05:57;13.23;;;11.73;;
15712;SDS011;7957;51.608;6.916;2023-04-06T02:08:24;13.10;;;11.70;;
15712;SDS011;7957;51.608;6.916;2023-04-06T02:10:51;12.90;;;11.43;;
15712;SDS011;7957;51.608;6.916;2023-04-06T02:13:18;13.87;;;12.00;;
15712;SDS011;7957;51.608;6.916;2023-04-06T02:15:46;13.20;;;11.60;;
15712;SDS011;7957;51.608;6.916;2023-04-06T02:18:13;13.67;;;12.30;;
15712;SDS011;7957;51.608;6.916;2023-04-06T02:20:40;12.90;;;11.60;;
15712;SDS011;7957;51.608;6.916;2023-04-06T02:23:07;16.23;;;12.40;;
15712;SDS011;7957;51.608;6.916;2023-04-06T02:25:34;13.30;;;11.70;;
15712;SDS011;7957;51.608;6.916;2023-04-06T02:28:01;15.23;;;12.23;;
15712;SDS011;7957;51.608;6.916;2023-04-06T02:30:28;15.00;;;11.70;;
15712;SDS011;7957;51.608;6.916;2023-04-06T02:32:58;13.40;;;11.80;;
15712;SDS011;7957;51.608;6.916;2023-04-06T02:35:25;13.33;;;11.97;;
15712;SDS011;7957;51.608;6.916;2023-04-06T02:37:52;14.37;;;12.13;;
15712;SDS011;7957;51.608;6.916;2023-04-06T02:40:19;13.80;;;12.40;;
15712;SDS011;7957;51.608;6.916;2023-04-06T02:42:46;13.67;;;11.90;;
15712;SDS011;7957;51.608;6.916;2023-04-06T02:45:13;13.00;;;11.60;;
15712;SDS011;7957;51.608;6.916;2023-04-06T02:47:41;16.63;;;12.57;;
15712;SDS011;7957;51.608;6.916;2023-04-06T02:50:10;13.60;;;12.20;;
15712;SDS011;7957;51.608;6.916;2023-04-06T02:52:37;13.57;;;12.13;;
15712;SDS011;7957;51.608;6.916;2023-04-06T02:55:04;13.70;;;12.30;;
15712;SDS011;7957;51.608;6.916;2023-04-06T02:57:32;14.30;;;12.80;;
15712;SDS011;7957;51.608;6.916;2023-04-06T02:59:59;14.47;;;12.93;;
15712;SDS011;7957;51.608;6.916;2023-04-06T03:02:26;14.37;;;12.53;;
15712;SDS011;7957;51.608;6.916;2023-04-06T03:04:53;16.40;;;12.67;;
15712;SDS011;7957;51.608;6.916;2023-04-06T03:07:21;15.63;;;12.90;;
15712;SDS011;7957;51.608;6.916;2023-04-06T03:09:48;15.73;;;12.77;;
15712;SDS011;7957;51.608;6.916;2023-04-06T03:12:15;16.33;;;12.57;;
15712;SDS011;7957;51.608;6.916;2023-04-06T03:14:42;18.83;;;13.50;;
15712;SDS011;7957;51.608;6.916;2023-04-06T03:17:09;14.90;;;13.10;;
15712;SDS011;7957;51.608;6.916;2023-04-06T03:19:36;16.00;;;13.10;;
15712;SDS011;7957;51.608;6.916;2023-04-06T03:22:03;15.57;;;12.43;;
15712;SDS011;7957;51.608;6.916;2023-04-06T03:24:32;17.63;;;12.63;;
15712;SDS011;7957;51.608;6.916;2023-04-06T03:26:59;15.10;;;12.73;;
15712;SDS011;7957;51.608;6.916;2023-04-06T03:29:26;16.77;;;12.43;;
15712;SDS011;7957;51.608;6.916;2023-04-06T03:31:53;15.10;;;12.13;;
15712;SDS011;7957;51.608;6.916;2023-04-06T03:34:20;16.63;;;12.83;;
15712;SDS011;7957;51.608;6.916;2023-04-06T03:36:47;16.80;;;12.83;;
15712;SDS011;7957;51.608;6.916;2023-04-06T03:39:14;14.33;;;11.93;;
15712;SDS011;7957;51.608;6.916;2023-04-06T03:41:42;15.73;;;12.50;;
15712;SDS011;7957;51.608;6.916;2023-04-06T03:44:09;16.07;;;12.83;;
15712;SDS011;7957;51.608;6.916;2023-04-06T03:46:36;15.27;;;13.10;;
15712;SDS011;7957;51.608;6.916;2023-04-06T03:49:03;15.73;;;12.73;;
15712;SDS011;7957;51.608;6.916;2023-04-06T03:51:30;18.87;;;12.33;;
15712;SDS011;7957;51.608;6.916;2023-04-06T03:53:57;16.73;;;12.40;;
15712;SDS011;7957;51.608;6.916;2023-04-06T03:56:24;17.13;;;12.20;;
15712;SDS011;7957;51.608;6.916;2023-04-06T03:58:52;14.40;;;12.73;;
15712;SDS011;7957;51.608;6.916;2023-04-06T04:01:20;14.13;;;12.00;;
15712;SDS011;7957;51.608;6.916;2023-04-06T04:03:47;13.97;;;12.47;;
15712;SDS011;7957;51.608;6.916;2023-04-06T04:06:14;15.30;;;12.27;;
15712;SDS011;7957;51.608;6.916;2023-04-06T04:08:40;14.10;;;11.50;;
15712;SDS011;7957;51.608;6.916;2023-04-06T04:11:07;15.50;;;12.57;;
15712;SDS011;7957;51.608;6.916;2023-04-06T04:13:34;14.90;;;11.70;;
15712;SDS011;7957;51.608;6.916;2023-04-06T04:16:03;15.53;;;12.43;;
15712;SDS011;7957;51.608;6.916;2023-04-06T04:18:30;13.33;;;12.03;;
15712;SDS011;7957;51.608;6.916;2023-04-06T04:20:57;14.63;;;11.47;;
15712;SDS011;7957;51.608;6.916;2023-04-06T04:23:23;16.17;;;12.77;;
15712;SDS011;7957;51.608;6.916;2023-04-06T04:25:50;12.40;;;10.70;;
15712;SDS011;7957;51.608;6.916;2023-04-06T04:28:17;14.60;;;12.10;;
15712;SDS011;7957;51.608;6.916;2023-04-06T04:30:44;12.53;;;10.77;;
15712;SDS011;7957;51.608;6.916;2023-04-06T04:33:13;14.63;;;12.00;;
15712;SDS011;7957;51.608;6.916;2023-04-06T04:35:40;13.03;;;11.50;;
15712;SDS011;7957;51.608;6.916;2023-04-06T04:38:07;17.63;;;12.03;;
15712;SDS011;7957;51.608;6.916;2023-04-06T04:40:34;14.10;;;12.17;;
15712;SDS011;7957;51.608;6.916;2023-04-06T04:43:01;14.93;;;12.30;;
15712;SDS011;7957;51.608;6.916;2023-04-06T04:45:28;17.07;;;12.50;;
15712;SDS011;7957;51.608;6.916;2023-04-06T04:47:55;16.07;;;12.40;;
15712;SDS011;7957;51.608;6.916;2023-04-06T04:50:25;17.70;;;12.87;;
15712;SDS011;7957;51.608;6.916;2023-04-06T04:52:52;17.87;;;12.00;;
15712;SDS011;7957;51.608;6.916;2023-04-06T04:55:19;16.10;;;13.10;;
15712;SDS011;7957;51.608;6.916;2023-04-06T04:57:46;19.57;;;12.93;;
15712;SDS011;7957;51.608;6.916;2023-04-06T05:00:13;18.03;;;12.83;;
15712;SDS011;7957;51.608;6.916;2023-04-06T05:02:40;19.60;;;13.50;;
15712;SDS011;7957;51.608;6.916;2023-04-06T05:05:08;20.27;;;12.40;;
15712;SDS011;7957;51.608;6.916;2023-04-06T05:07:36;18.10;;;12.77;;
15712;SDS011;7957;51.608;6.916;2023-04-06T05:10:03;15.83;;;12.53;;
15712;SDS011;7957;51.608;6.916;2023-04-06T05:12:31;17.27;;;12.37;;
15712;SDS011;7957;51.608;6.916;2023-04-06T05:14:58;17.70;;;12.37;;
15712;SDS011;7957;51.608;6.916;2023-04-06T05:17:25;19.20;;;13.23;;
15712;SDS011;7957;51.608;6.916;2023-04-06T05:19:52;20.97;;;13.83;;
15712;SDS011;7957;51.608;6.916;2023-04-06T05:22:22;21.80;;;13.70;;
15712;SDS011;7957;51.608;6.916;2023-04-06T05:24:50;17.87;;;12.47;;
15712;SDS011;7957;51.608;6.916;2023-04-06T05:27:17;23.17;;;13.03;;
15712;SDS011;7957;51.608;6.916;2023-04-06T05:29:44;19.60;;;14.10;;
15712;SDS011;7957;51.608;6.916;2023-04-06T05:32:11;18.47;;;12.63;;
15712;SDS011;7957;51.608;6.916;2023-04-06T05:34:38;18.50;;;13.20;;
15712;SDS011;7957;51.608;6.916;2023-04-06T05:37:06;18.30;;;13.33;;
15712;SDS011;7957;51.608;6.916;2023-04-06T05:39:33;17.87;;;14.07;;
15712;SDS011;7957;51.608;6.916;2023-04-06T05:42:03;19.57;;;13.80;;
15712;SDS011;7957;51.608;6.916;2023-04-06T05:44:31;25.03;;;14.57;;
15712;SDS011;7957;51.608;6.916;2023-04-06T05:46:58;22.20;;;14.17;;
15712;SDS011;7957;51.608;6.916;2023-04-06T05:49:25;22.90;;;15.60;;
15712;SDS011;7957;51.608;6.916;2023-04-06T05:51:52;23.97;;;14.73;;
15712;SDS011;7957;51.608;6.916;2023-04-06T05:54:19;22.67;;;14.63;;
15712;SDS011;7957;51.608;6.916;2023-04-06T05:56:46;24.87;;;14.70;;
15712;SDS011;7957;51.608;6.916;2023-04-06T05:59:15;21.67;;;15.57;;
15712;SDS011;7957;51.608;6.916;2023-04-06T06:01:42;23.27;;;14.30;;
15712;SDS011;7957;51.608;6.916;2023-04-06T06:04:09;20.17;;;15.40;;
15712;SDS011;7957;51.608;6.916;2023-04-06T06:06:35;20.07;;;15.13;;
15712;SDS011;7957;51.608;6.916;2023-04-06T06:09:02;21.63;;;15.23;;
15712;SDS011;7957;51.608;6.916;2023-04-06T06:11:29;20.37;;;14.93;;
15712;SDS011;7957;51.608;6.916;2023-04-06T06:13:58;20.63;;;14.67;;
15712;SDS011;7957;51.608;6.916;2023-04-06T06:16:26;23.97;;;15.20;;
15712;SDS011;7957;51.608;6.916;2023-04-06T06:18:53;24.20;;;15.43;;
15712;SDS011;7957;51.608;6.916;2023-04-06T06:21:20;21.43;;;14.80;;
15712;SDS011;7957;51.608;6.916;2023-04-06T06:23:47;21.97;;;14.67;;
15712;SDS011;7957;51.608;6.916;2023-04-06T06:26:15;22.03;;;16.00;;
15712;SDS011;7957;51.608;6.916;2023-04-06T06:28:42;18.33;;;15.83;;
15712;SDS011;7957;51.608;6.916;2023-04-06T06:31:09;22.10;;;15.10;;
15712;SDS011;7957;51.608;6.916;2023-04-06T06:33:37;19.63;;;14.40;;
15712;SDS011;7957;51.608;6.916;2023-04-06T06:36:05;19.17;;;15.43;;
15712;SDS011;7957;51.608;6.916;2023-04-06T06:38:32;20.50;;;15.60;;
15712;SDS011;7957;51.608;6.916;2023-04-06T06:40:59;19.90;;;14.73;;
15712;SDS011;7957;51.608;6.916;2023-04-06T06:43:26;19.87;;;14.77;;
15712;SDS011;7957;51.608;6.916;2023-04-06T06:45:53;25.87;;;15.13;;
15712;SDS011;7957;51.608;6.916;2023-04-06T06:48:19;23.80;;;15.53;;
15712;SDS011;7957;51.608;6.916;2023-04-06T06:50:48;18.27;;;14.87;;
15712;SDS011;7957;51.608;6.916;2023-04-06T06:53:15;21.13;;;16.00;;
15712;SDS011;7957;51.608;6.916;2023-04-06T06:55:42;18.13;;;13.50;;
15712;SDS011;7957;51.608;6.916;2023-04-06T06:58:09;18.47;;;15.07;;
15712;SDS011;7957;51.608;6.916;2023-04-06T07:00:36;20.10;;;14.90;;
15712;SDS011;7957;51.608;6.916;2023-04-06T07:03:03;17.90;;;14.23;;
15712;SDS011;7957;51.608;6.916;2023-04-06T07:05:30;17.93;;;14.93;;
15712;SDS011;7957;51.608;6.916;2023-04-06T07:07:58;17.80;;;13.90;;
15712;SDS011;7957;51.608;6.916;2023-04-06T07:10:25;18.43;;;14.60;;
15712;SDS011;7957;51.608;6.916;2023-04-06T07:12:52;16.40;;;14.20;;
15712;SDS011;7957;51.608;6.916;2023-04-06T07:15:19;16.03;;;13.17;;
15712;SDS011;7957;51.608;6.916;2023-04-06T07:17:46;20.57;;;13.80;;
15712;SDS011;7957;51.608;6.916;2023-04-06T07:20:13;16.10;;;14.03;;
15712;SDS011;7957;51.608;6.916;2023-04-06T07:22:42;15.43;;;13.33;;
15712;SDS011;7957;51.608;6.916;2023-04-06T07:25:11;14.97;;;13.37;;
15712;SDS011;7957;51.608;6.916;2023-04-06T07:27:38;16.07;;;13.43;;
15712;SDS011;7957;51.608;6.916;2023-04-06T07:30:05;16.43;;;13.33;;
15712;SDS011;7957;51.608;6.916;2023-04-06T07:32:33;14.37;;;12.97;;
15712;SDS011;7957;51.608;6.916;2023-04-06T07:35:03;15.07;;;12.97;;
15712;SDS011;7957;51.608;6.916;2023-04-06T07:37:30;16.93;;;13.13;;
15712;SDS011;7957;51.608;6.916;2023-04-06T07:39:57;16.20;;;12.43;;
15712;SDS011;7957;51.608;6.916;2023-04-06T07:42:26;15.77;;;12.83;;
15712;SDS011;7957;51.608;6.916;2023-04-06T07:44:53;16.87;;;13.00;;
15712;SDS011;7957;51.608;6.916;2023-04-06T07:47:20;15.43;;;13.13;;
15712;SDS011;7957;51.608;6.916;2023-04-06T07:49:47;14.10;;;12.33;;
15712;SDS011;7957;51.608;6.916;2023-04-06T07:52:13;15.23;;;12.47;;
15712;SDS011;7957;51.608;6.916;2023-04-06T07:54:40;14.63;;;12.00;;
15712;SDS011;7957;51.608;6.916;2023-04-06T07:57:07;15.23;;;12.47;;
15712;SDS011;7957;51.608;6.916;2023-04-06T07:59:36;17.43;;;12.60;;
15712;SDS011;7957;51.608;6.916;2023-04-06T08:02:03;15.50;;;12.60;;
15712;SDS011;7957;51.608;6.916;2023-04-06T08:04:30;13.73;;;12.30;;
15712;SDS011;7957;51.608;6.916;2023-04-06T08:06:57;14.80;;;12.33;;
15712;SDS011;7957;51.608;6.916;2023-04-06T08:09:24;16.07;;;13.57;;
15712;SDS011;7957;51.608;6.916;2023-04-06T08:11:51;15.47;;;12.37;;
15712;SDS011;7957;51.608;6.916;2023-04-06T08:14:18;16.07;;;12.67;;
15712;SDS011;7957;51.608;6.916;2023-04-06T08:16:47;15.67;;;12.47;;
15712;SDS011;7957;51.608;6.916;2023-04-06T08:19:14;14.97;;;12.13;;
15712;SDS011;7957;51.608;6.916;2023-04-06T08:21:42;14.20;;;12.60;;
15712;SDS011;7957;51.608;6.916;2023-04-06T08:24:10;13.70;;;12.10;;
15712;SDS011;7957;51.608;6.916;2023-04-06T08:26:37;15.17;;;12.70;;
15712;SDS011;7957;51.608;6.916;2023-04-06T08:29:04;14.77;;;12.33;;
15712;SDS011;7957;51.608;6.916;2023-04-06T08:31:32;14.13;;;12.73;;
15712;SDS011;7957;51.608;6.916;2023-04-06T08:34:00;14.40;;;12.80;;
15712;SDS011;7957;51.608;6.916;2023-04-06T08:36:28;16.97;;;12.93;;
15712;SDS011;7957;51.608;6.916;2023-04-06T08:38:56;14.20;;;12.67;;
15712;SDS011;7957;51.608;6.916;2023-04-06T08:41:23;14.63;;;12.40;;
15712;SDS011;7957;51.608;6.916;2023-04-06T08:43:58;17.20;;;13.47;;
15712;SDS011;7957;51.608;6.916;2023-04-06T08:46:27;16.73;;;13.07;;
15712;SDS011;7957;51.608;6.916;2023-04-06T08:48:56;15.53;;;12.80;;
15712;SDS011;7957;51.608;6.916;2023-04-06T08:51:26;15.77;;;13.30;;
15712;SDS011;7957;51.608;6.916;2023-04-06T08:53:54;14.80;;;13.30;;
15712;SDS011;7957;51.608;6.916;2023-04-06T08:56:21;16.00;;;12.83;;
15712;SDS011;7957;51.608;6.916;2023-04-06T08:58:48;15.83;;;13.07;;
15712;SDS011;7957;51.608;6.916;2023-04-06T09:01:17;15.20;;;13.50;;
15712;SDS011;7957;51.608;6.916;2023-04-06T09:03:46;16.37;;;13.77;;
15712;SDS011;7957;51.608;6.916;2023-04-06T09:06:15;18.97;;;12.73;;
15712;SDS011;7957;51.608;6.916;2023-04-06T09:08:44;13.43;;;12.03;;
15712;SDS011;7957;51.608;6.916;2023-04-06T09:11:11;16.47;;;13.03;;
15712;SDS011;7957;51.608;6.916;2023-04-06T09:13:46;15.43;;;12.80;;
15712;SDS011;7957;51.608;6.916;2023-04-06T09:16:14;16.77;;;13.13;;
15712;SDS011;7957;51.608;6.916;2023-04-06T09:18:41;14.40;;;12.90;;
15712;SDS011;7957;51.608;6.916;2023-04-06T09:21:08;17.07;;;14.23;;
15712;SDS011;7957;51.608;6.916;2023-04-06T09:23:35;15.53;;;13.50;;
15712;SDS011;7957;51.608;6.916;2023-04-06T09:26:08;14.97;;;13.00;;
15712;SDS011;7957;51.608;6.916;2023-04-06T09:28:47;16.70;;;13.70;;
15712;SDS011;7957;51.608;6.916;2023-04-06T09:31:15;15.73;;;13.03;;
15712;SDS011;7957;51.608;6.916;2023-04-06T09:33:47;14.67;;;13.20;;
15712;SDS011;7957;51.608;6.916;2023-04-06T09:36:15;14.90;;;13.40;;
15712;SDS011;7957;51.608;6.916;2023-04-06T09:38:52;16.10;;;12.87;;
15712;SDS011;7957;51.608;6.916;2023-04-06T09:41:22;15.57;;;13.90;;
15712;SDS011;7957;51.608;6.916;2023-04-06T09:43:50;15.47;;;12.53;;
15712;SDS011;7957;51.608;6.916;2023-04-06T09:46:18;14.63;;;13.20;;
15712;SDS011;7957;51.608;6.916;2023-04-06T09:48:48;16.03;;;14.33;;
15712;SDS011;7957;51.608;6.916;2023-04-06T09:51:16;16.20;;;13.97;;
15712;SDS011;7957;51.608;6.916;2023-04-06T09:53:46;15.47;;;13.87;;
15712;SDS011;7957;51.608;6.916;2023-04-06T09:56:20;17.40;;;14.37;;
15712;SDS011;7957;51.608;6.916;2023-04-06T09:58:54;15.20;;;13.60;;
15712;SDS011;7957;51.608;6.916;2023-04-06T10:01:28;17.23;;;15.20;;
15712;SDS011;7957;51.608;6.916;2023-04-06T10:04:03;17.17;;;14.87;;
15712;SDS011;7957;51.608;6.916;2023-04-06T10:06:39;16.73;;;14.83;;
15712;SDS011;7957;51.608;6.916;2023-04-06T10:09:07;15.70;;;13.60;;
15712;SDS011;7957;51.608;6.916;2023-04-06T10:11:36;15.37;;;13.80;;
15712;SDS011;7957;51.608;6.916;2023-04-06T10:14:03;17.10;;;14.23;;
15712;SDS011;7957;51.608;6.916;2023-04-06T10:16:30;17.90;;;14.40;;
15712;SDS011;7957;51.608;6.916;2023-04-06T10:19:00;15.63;;;14.03;;
15712;SDS011;7957;51.608;6.916;2023-04-06T10:21:36;16.63;;;13.73;;
15712;SDS011;7957;51.608;6.916;2023-04-06T10:24:06;15.20;;;13.60;;
15712;SDS011;7957;51.608;6.916;2023-04-06T10:26:38;14.17;;;12.67;;
15712;SDS011;7957;51.608;6.916;2023-04-06T10:29:06;15.50;;;13.23;;
15712;SDS011;7957;51.608;6.916;2023-04-06T10:31:32;16.80;;;13.63;;
15712;SDS011;7957;51.608;6.916;2023-04-06T10:34:05;15.60;;;13.90;;
15712;SDS011;7957;51.608;6.916;2023-04-06T10:36:33;15.40;;;12.43;;
15712;SDS011;7957;51.608;6.916;2023-04-06T10:39:01;16.70;;;13.63;;
15712;SDS011;7957;51.608;6.916;2023-04-06T10:41:32;15.00;;;13.40;;
15712;SDS011;7957;51.608;6.916;2023-04-06T10:44:01;17.50;;;14.07;;
15712;SDS011;7957;51.608;6.916;2023-04-06T10:46:29;16.57;;;14.83;;
15712;SDS011;7957;51.608;6.916;2023-04-06T10:48:57;15.63;;;14.03;;
15712;SDS011;7957;51.608;6.916;2023-04-06T10:51:37;17.43;;;13.67;;
15712;SDS011;7957;51.608;6.916;2023-04-06T10:54:04;15.97;;;14.33;;
15712;SDS011;7957;51.608;6.916;2023-04-06T10:56:32;14.70;;;13.20;;
15712;SDS011;7957;51.608;6.916;2023-04-06T10:59:05;15.23;;;13.63;;
15712;SDS011;7957;51.608;6.916;2023-04-06T11:01:32;15.40;;;13.80;;
15712;SDS011;7957;51.608;6.916;2023-04-06T11:03:59;17.23;;;14.33;;
15712;SDS011;7957;51.608;6.916;2023-04-06T11:06:27;15.03;;;13.53;;
15712;SDS011;7957;51.608;6.916;2023-04-06T11:08:56;18.23;;;15.00;;
15712;SDS011;7957;51.608;6.916;2023-04-06T11:11:24;15.90;;;14.17;;
15712;SDS011;7957;51.608;6.916;2023-04-06T11:13:53;17.83;;;14.43;;
15712;SDS011;7957;51.608;6.916;2023-04-06T11:16:23;17.80;;;14.70;;
15712;SDS011;7957;51.608;6.916;2023-04-06T11:18:51;17.27;;;14.87;;
15712;SDS011;7957;51.608;6.916;2023-04-06T11:21:30;16.93;;;14.33;;
15712;SDS011;7957;51.608;6.916;2023-04-06T11:24:05;20.07;;;15.57;;
15712;SDS011;7957;51.608;6.916;2023-04-06T11:26:36;17.87;;;15.00;;
15712;SDS011;7957;51.608;6.916;2023-04-06T11:29:04;16.50;;;14.70;;
15712;SDS011;7957;51.608;6.916;2023-04-06T11:31:32;17.87;;;15.60;;
15712;SDS011;7957;51.608;6.916;2023-04-06T11:34:08;18.37;;;15.13;;
15712;SDS011;7957;51.608;6.916;2023-04-06T11:36:36;16.83;;;15.03;;
15712;SDS011;7957;51.608;6.916;2023-04-06T11:39:06;19.63;;;15.40;;
15712;SDS011;7957;51.608;6.916;2023-04-06T11:41:34;19.50;;;15.40;;
15712;SDS011;7957;51.608;6.916;2023-04-06T11:44:01;18.63;;;14.93;;
15712;SDS011;7957;51.608;6.916;2023-04-06T11:46:28;18.17;;;15.30;;
15712;SDS011;7957;51.608;6.916;2023-04-06T11:48:59;17.67;;;15.47;;
15712;SDS011;7957;51.608;6.916;2023-04-06T11:51:26;20.03;;;15.53;;
15712;SDS011;7957;51.608;6.916;2023-04-06T11:53:53;16.83;;;15.10;;
15712;SDS011;7957;51.608;6.916;2023-04-06T11:56:24;16.63;;;14.83;;
15712;SDS011;7957;51.608;6.916;2023-04-06T11:58:52;17.83;;;15.17;;
15712;SDS011;7957;51.608;6.916;2023-04-06T12:01:20;17.50;;;14.37;;
15712;SDS011;7957;51.608;6.916;2023-04-06T12:03:47;16.20;;;14.50;;
15712;SDS011;7957;51.608;6.916;2023-04-06T12:06:15;18.47;;;15.30;;
15712;SDS011;7957;51.608;6.916;2023-04-06T12:08:43;15.77;;;13.53;;
15712;SDS011;7957;51.608;6.916;2023-04-06T12:11:10;18.07;;;15.00;;
15712;SDS011;7957;51.608;6.916;2023-04-06T12:13:38;21.03;;;15.83;;
15712;SDS011;7957;51.608;6.916;2023-04-06T12:16:05;18.20;;;15.37;;
15712;SDS011;7957;51.608;6.916;2023-04-06T12:18:32;20.23;;;15.27;;
15712;SDS011;7957;51.608;6.916;2023-04-06T12:20:59;18.23;;;15.50;;
15712;SDS011;7957;51.608;6.916;2023-04-06T12:23:28;20.07;;;16.33;;
15712;SDS011;7957;51.608;6.916;2023-04-06T12:25:55;18.10;;;14.47;;
15712;SDS011;7957;51.608;6.916;2023-04-06T12:28:22;18.70;;;15.27;;
15712;SDS011;7957;51.608;6.916;2023-04-06T12:30:52;23.20;;;16.37;;
15712;SDS011;7957;51.608;6.916;2023-04-06T12:33:19;22.97;;;16.70;;
15712;SDS011;7957;51.608;6.916;2023-04-06T12:35:46;18.33;;;16.10;;
15712;SDS011;7957;51.608;6.916;2023-04-06T12:38:13;17.17;;;15.27;;
15712;SDS011;7957;51.608;6.916;2023-04-06T12:40:41;17.80;;;14.90;;
15712;SDS011;7957;51.608;6.916;2023-04-06T12:43:08;20.83;;;16.87;;
15712;SDS011;7957;51.608;6.916;2023-04-06T12:45:35;21.83;;;15.43;;
15712;SDS011;7957;51.608;6.916;2023-04-06T12:48:02;19.87;;;16.27;;
15712;SDS011;7957;51.608;6.916;2023-04-06T12:50:29;21.03;;;16.97;;
15712;SDS011;7957;51.608;6.916;2023-04-06T12:52:56;20.00;;;17.03;;
15712;SDS011;7957;51.608;6.916;2023-04-06T12:55:23;19.33;;;15.97;;
15712;SDS011;7957;51.608;6.916;2023-04-06T12:57:51;20.83;;;16.53;;
15712;SDS011;7957;51.608;6.916;2023-04-06T13:00:20;18.47;;;16.57;;
15712;SDS011;7957;51.608;6.916;2023-04-06T13:02:47;20.83;;;16.00;;
15712;SDS011;7957;51.608;6.916;2023-04-06T13:05:14;20.70;;;16.63;;
15712;SDS011;7957;51.608;6.916;2023-04-06T13:07:43;17.63;;;15.60;;
15712;SDS011;7957;51.608;6.916;2023-04-06T13:10:11;20.23;;;16.43;;
15712;SDS011;7957;51.608;6.916;2023-04-06T13:12:38;17.77;;;15.53;;
15712;SDS011;7957;51.608;6.916;2023-04-06T13:15:07;17.50;;;15.13;;
15712;SDS011;7957;51.608;6.916;2023-04-06T13:17:35;17.20;;;15.30;;
15712;SDS011;7957;51.608;6.916;2023-04-06T13:20:02;20.43;;;15.40;;
15712;SDS011;7957;51.608;6.916;2023-04-06T13:22:31;21.70;;;16.20;;
15712;SDS011;7957;51.608;6.916;2023-04-06T13:24:57;16.63;;;14.83;;
15712;SDS011;7957;51.608;6.916;2023-04-06T13:27:24;17.87;;;15.00;;
15712;SDS011;7957;51.608;6.916;2023-04-06T13:29:52;17.10;;;14.87;;
15712;SDS011;7957;51.608;6.916;2023-04-06T13:32:20;15.57;;;13.83;;
15712;SDS011;7957;51.608;6.916;2023-04-06T13:34:47;15.73;;;13.40;;
15712;SDS011;7957;51.608;6.916;2023-04-06T13:37:15;14.93;;;13.43;;
15712;SDS011;7957;51.608;6.916;2023-04-06T13:39:41;14.43;;;12.93;;
15712;SDS011;7957;51.608;6.916;2023-04-06T13:42:09;14.73;;;13.03;;
15712;SDS011;7957;51.608;6.916;2023-04-06T13:44:36;14.80;;;13.23;;
15712;SDS011;7957;51.608;6.916;2023-04-06T13:47:03;13.97;;;11.77;;
15712;SDS011;7957;51.608;6.916;2023-04-06T13:49:32;13.93;;;12.47;;
15712;SDS011;7957;51.608;6.916;2023-04-06T13:51:59;15.20;;;12.87;;
15712;SDS011;7957;51.608;6.916;2023-04-06T13:54:26;14.27;;;12.77;;
15712;SDS011;7957;51.608;6.916;2023-04-06T13:56:53;14.13;;;12.53;;
15712;SDS011;7957;51.608;6.916;2023-04-06T13:59:20;12.80;;;11.50;;
15712;SDS011;7957;51.608;6.916;2023-04-06T14:01:47;17.03;;;12.50;;
15712;SDS011;7957;51.608;6.916;2023-04-06T14:04:14;13.80;;;12.40;;
15712;SDS011;7957;51.608;6.916;2023-04-06T14:06:44;14.97;;;12.00;;
15712;SDS011;7957;51.608;6.916;2023-04-06T14:09:11;13.33;;;11.60;;
15712;SDS011;7957;51.608;6.916;2023-04-06T14:11:38;14.63;;;11.30;;
15712;SDS011;7957;51.608;6.916;2023-04-06T14:14:05;13.57;;;11.10;;
15712;SDS011;7957;51.608;6.916;2023-04-06T14:16:32;13.73;;;11.40;;
15712;SDS011;7957;51.608;6.916;2023-04-06T14:18:59;13.70;;;11.37;;
15712;SDS011;7957;51.608;6.916;2023-04-06T14:21:26;12.07;;;10.77;;
15712;SDS011;7957;51.608;6.916;2023-04-06T14:23:55;12.83;;;10.37;;
15712;SDS011;7957;51.608;6.916;2023-04-06T14:26:21;12.33;;;10.33;;
15712;SDS011;7957;51.608;6.916;2023-04-06T14:28:49;14.50;;;9.83;;
15712;SDS011;7957;51.608;6.916;2023-04-06T14:31:16;14.50;;;10.43;;
15712;SDS011;7957;51.608;6.916;2023-04-06T14:33:44;12.00;;;9.67;;
15712;SDS011;7957;51.608;6.916;2023-04-06T14:36:11;11.73;;;10.13;;
15712;SDS011;7957;51.608;6.916;2023-04-06T14:38:38;11.10;;;10.00;;